createdAt,value
2023-06-10T00:00:16.263Z,20.40
2023-06-10T00:02:48.179Z,20.20
2023-06-10T00:05:22.294Z,20.20
2023-06-10T00:07:55.494Z,20.10
2023-06-10T00:10:27.668Z,20.00
2023-06-10T00:12:59.417Z,20.10
2023-06-10T00:15:32.050Z,20.10
2023-06-10T00:18:04.907Z,20.10
2023-06-10T00:20:37.159Z,20.10
2023-06-10T00:23:09.625Z,20.20
2023-06-10T00:25:41.250Z,20.20
2023-06-10T00:28:12.852Z,20.20
2023-06-10T00:30:44.402Z,20.30
2023-06-10T00:33:16.928Z,20.30
2023-06-10T00:35:48.836Z,20.30
2023-06-10T00:38:20.403Z,20.30
2023-06-10T00:40:52.052Z,20.20
2023-06-10T00:43:23.532Z,20.10
2023-06-10T00:45:55.382Z,20.10
2023-06-10T00:48:27.673Z,20.10
2023-06-10T00:51:00.149Z,20.20
2023-06-10T00:53:32.353Z,20.20
2023-06-10T00:56:04.143Z,20.10
2023-06-10T00:58:36.532Z,20.10
2023-06-10T01:01:10.699Z,20.10
2023-06-10T01:03:46.526Z,20.10
2023-06-10T01:06:25.339Z,20.10
2023-06-10T01:09:01.256Z,20.10
2023-06-10T01:11:36.590Z,20.10
2023-06-10T01:14:09.902Z,20.10
2023-06-10T01:16:42.053Z,20.10
2023-06-10T01:19:15.570Z,20.10
2023-06-10T01:21:49.016Z,20.10
2023-06-10T01:24:21.161Z,20.00
2023-06-10T01:26:55.623Z,19.90
2023-06-10T01:29:30.637Z,19.80
2023-06-10T01:32:05.822Z,19.70
2023-06-10T01:34:39.527Z,19.60
2023-06-10T01:37:13.662Z,19.70
2023-06-10T01:39:47.642Z,19.70
2023-06-10T01:42:19.803Z,19.70
2023-06-10T01:44:51.732Z,19.70
2023-06-10T01:47:23.550Z,19.70
2023-06-10T01:49:55.579Z,19.70
2023-06-10T01:52:27.312Z,19.70
2023-06-10T01:54:58.832Z,19.80
2023-06-10T01:57:30.846Z,19.80
2023-06-10T02:00:02.615Z,19.70
2023-06-10T02:02:34.466Z,19.70
2023-06-10T02:05:07.616Z,19.70
2023-06-10T02:07:39.630Z,19.70
2023-06-10T02:10:12.172Z,19.70
2023-06-10T02:12:43.770Z,19.70
2023-06-10T02:15:15.377Z,19.70
2023-06-10T02:17:47.055Z,19.70
2023-06-10T02:20:18.557Z,19.70
2023-06-10T02:22:50.255Z,19.80
2023-06-10T02:25:22.013Z,19.80
2023-06-10T02:27:53.613Z,19.80
2023-06-10T02:30:25.294Z,19.70
2023-06-10T02:32:57.327Z,19.60
2023-06-10T02:35:29.104Z,19.40
2023-06-10T02:38:00.761Z,19.30
2023-06-10T02:40:32.519Z,19.40
2023-06-10T02:43:04.689Z,19.40
2023-06-10T02:45:36.267Z,19.40
2023-06-10T02:48:08.612Z,19.50
2023-06-10T02:50:41.591Z,19.50
2023-06-10T02:53:14.242Z,19.50
2023-06-10T02:55:46.123Z,19.60
2023-06-10T02:58:17.717Z,19.50
2023-06-10T03:00:49.845Z,19.40
2023-06-10T03:03:23.528Z,19.40
2023-06-10T03:05:55.288Z,19.40
2023-06-10T03:08:27.328Z,19.40
2023-06-10T03:10:58.938Z,19.30
2023-06-10T03:13:30.526Z,19.30
2023-06-10T03:16:04.051Z,19.20
2023-06-10T03:18:35.660Z,19.20
2023-06-10T03:21:07.169Z,19.20
2023-06-10T03:23:39.351Z,19.10
2023-06-10T03:26:11.359Z,19.10
2023-06-10T03:28:42.976Z,19.00
2023-06-10T03:31:14.644Z,19.00
2023-06-10T03:33:46.229Z,19.00
2023-06-10T03:36:17.760Z,19.00
2023-06-10T03:38:51.017Z,19.00
2023-06-10T03:41:22.864Z,19.00
2023-06-10T03:43:54.636Z,18.90
2023-06-10T03:46:26.284Z,19.00
2023-06-10T03:48:58.716Z,19.00
2023-06-10T03:51:31.445Z,19.00
2023-06-10T03:54:03.062Z,19.10
2023-06-10T03:56:34.942Z,19.10
2023-06-10T03:59:07.164Z,19.20
2023-06-10T04:01:40.623Z,19.20
2023-06-10T04:04:13.671Z,19.30
2023-06-10T04:06:45.398Z,19.30
2023-06-10T04:09:17.311Z,19.40
2023-06-10T04:11:49.052Z,19.40
2023-06-10T04:14:21.683Z,19.60
2023-06-10T04:16:53.409Z,19.60
2023-06-10T04:19:25.022Z,19.60
2023-06-10T04:21:56.617Z,19.80
2023-06-10T04:24:28.125Z,20.00
2023-06-10T04:27:00.278Z,20.20
2023-06-10T04:29:32.746Z,20.40
2023-06-10T04:32:06.145Z,20.70
2023-06-10T04:34:40.105Z,21.10
2023-06-10T04:37:11.650Z,21.70
2023-06-10T04:39:43.180Z,23.00
2023-06-10T04:42:14.746Z,24.10
2023-06-10T04:44:46.309Z,24.50
2023-06-10T04:47:18.467Z,24.50
2023-06-10T04:49:49.988Z,24.60
2023-06-10T04:52:22.076Z,24.30
2023-06-10T04:54:53.664Z,24.70
2023-06-10T04:57:25.239Z,26.00
2023-06-10T04:59:56.850Z,27.20
2023-06-10T05:02:28.557Z,28.00
2023-06-10T05:05:00.200Z,28.90
2023-06-10T05:07:31.703Z,29.50
2023-06-10T05:10:04.016Z,30.10
2023-06-10T05:12:35.580Z,30.00
2023-06-10T05:15:09.189Z,29.90
2023-06-10T05:17:41.104Z,29.60
2023-06-10T05:20:16.051Z,29.90
2023-06-10T05:22:47.714Z,30.20
2023-06-10T05:25:19.325Z,30.60
2023-06-10T05:27:51.055Z,30.90
2023-06-10T05:30:22.874Z,31.20
2023-06-10T05:32:54.961Z,31.30
2023-06-10T05:35:26.544Z,31.60
2023-06-10T05:37:59.720Z,31.40
2023-06-10T05:40:31.762Z,31.60
2023-06-10T05:43:03.509Z,32.00
2023-06-10T05:45:35.153Z,32.30
2023-06-10T05:48:07.672Z,31.90
2023-06-10T05:50:41.095Z,31.80
2023-06-10T05:53:14.484Z,31.70
2023-06-10T05:55:46.635Z,31.70
2023-06-10T05:58:18.264Z,32.10
2023-06-10T06:00:50.053Z,31.40
2023-06-10T06:03:21.829Z,31.80
2023-06-10T06:05:53.642Z,32.10
2023-06-10T06:08:25.200Z,32.40
2023-06-10T06:10:56.793Z,32.50
2023-06-10T06:13:28.354Z,32.70
2023-06-10T06:15:59.642Z,32.80
2023-06-10T06:18:32.175Z,32.90
2023-06-10T06:21:03.858Z,32.90
2023-06-10T06:23:35.530Z,32.70
2023-06-10T06:26:08.991Z,33.10
2023-06-10T06:28:40.630Z,33.20
2023-06-10T06:31:12.205Z,32.90
2023-06-10T06:33:43.779Z,32.30
2023-06-10T06:36:15.454Z,31.40
2023-06-10T06:38:46.913Z,31.20
2023-06-10T06:41:18.515Z,31.50
2023-06-10T06:43:50.194Z,31.30
2023-06-10T06:46:22.335Z,31.00
2023-06-10T06:48:53.944Z,30.20
2023-06-10T06:51:25.543Z,29.60
2023-06-10T06:53:58.720Z,29.70
2023-06-10T06:56:30.370Z,30.30
2023-06-10T06:59:01.970Z,30.40
2023-06-10T07:01:35.368Z,29.70
2023-06-10T07:04:07.085Z,29.40
2023-06-10T07:06:38.934Z,29.00
2023-06-10T07:09:10.894Z,29.50
2023-06-10T07:11:42.593Z,29.70
2023-06-10T07:14:14.216Z,30.00
2023-06-10T07:16:47.276Z,30.20
2023-06-10T07:19:18.903Z,30.50
2023-06-10T07:21:50.559Z,30.60
2023-06-10T07:24:22.149Z,30.70
2023-06-10T07:26:54.223Z,30.20
2023-06-10T07:29:25.874Z,30.30
2023-06-10T07:31:57.685Z,30.70
2023-06-10T07:34:29.559Z,30.70
2023-06-10T07:37:01.420Z,30.10
2023-06-10T07:39:33.099Z,29.50
2023-06-10T07:42:05.154Z,29.00
2023-06-10T07:44:36.761Z,28.40
2023-06-10T07:47:09.044Z,27.80
2023-06-10T07:49:41.726Z,27.50
2023-06-10T07:52:13.357Z,26.60
2023-06-10T07:54:44.870Z,26.00
2023-06-10T07:57:17.362Z,25.60
2023-06-10T07:59:49.909Z,25.40
2023-06-10T08:02:24.042Z,25.50
2023-06-10T08:04:54.701Z,25.50
2023-06-10T08:07:26.692Z,25.30
2023-06-10T08:09:58.282Z,25.30
2023-06-10T08:12:29.857Z,25.60
2023-06-10T08:15:01.390Z,25.70
2023-06-10T08:17:33.040Z,25.90
2023-06-10T08:20:04.866Z,26.10
2023-06-10T08:22:36.409Z,26.20
2023-06-10T08:25:09.675Z,26.20
2023-06-10T08:27:41.462Z,26.30
2023-06-10T08:30:14.387Z,26.40
2023-06-10T08:32:46.778Z,26.50
2023-06-10T08:35:18.432Z,26.50
2023-06-10T08:37:51.067Z,26.50
2023-06-10T08:40:22.880Z,26.60
2023-06-10T08:43:00.018Z,26.50
2023-06-10T08:45:33.726Z,26.50
2023-06-10T08:48:07.530Z,26.50
2023-06-10T08:50:40.051Z,26.50
2023-06-10T08:53:12.939Z,26.70
2023-06-10T08:55:46.828Z,26.90
2023-06-10T08:58:18.562Z,27.00
2023-06-10T09:00:50.627Z,27.00
2023-06-10T09:03:22.999Z,26.90
2023-06-10T09:05:56.300Z,26.90
2023-06-10T09:08:27.951Z,26.80
2023-06-10T09:11:00.032Z,26.90
2023-06-10T09:13:31.748Z,27.00
2023-06-10T09:16:03.411Z,27.10
2023-06-10T09:18:36.977Z,27.10
2023-06-10T09:21:08.742Z,27.20
2023-06-10T09:23:41.214Z,27.20
2023-06-10T09:26:13.081Z,27.20
2023-06-10T09:28:46.993Z,27.20
2023-06-10T09:31:21.477Z,27.10
2023-06-10T09:33:53.317Z,27.20
2023-06-10T09:36:27.751Z,27.20
2023-06-10T09:38:59.613Z,27.30
2023-06-10T09:41:36.511Z,27.60
2023-06-10T09:44:13.375Z,28.00
2023-06-10T09:46:46.912Z,28.20
2023-06-10T09:49:21.882Z,28.20
2023-06-10T09:51:56.996Z,28.20
2023-06-10T09:54:31.376Z,28.10
2023-06-10T09:57:06.332Z,28.30
2023-06-10T09:59:40.126Z,28.30
2023-06-10T10:02:17.848Z,28.20
2023-06-10T10:04:49.891Z,27.90
2023-06-10T10:07:21.712Z,28.40
2023-06-10T10:09:53.306Z,28.40
2023-06-10T10:12:25.506Z,28.40
2023-06-10T10:14:58.207Z,28.90
2023-06-10T10:17:32.256Z,28.90
2023-06-10T10:20:06.640Z,28.50
2023-06-10T10:22:41.207Z,28.80
2023-06-10T10:25:16.648Z,28.90
2023-06-10T10:27:51.056Z,28.80
2023-06-10T10:30:24.117Z,28.90
2023-06-10T10:33:00.017Z,29.10
2023-06-10T10:35:34.839Z,28.90
2023-06-10T10:38:07.198Z,29.00
2023-06-10T10:40:40.410Z,28.70
2023-06-10T10:43:12.824Z,28.80
2023-06-10T10:45:44.552Z,28.40
2023-06-10T10:48:17.297Z,28.20
2023-06-10T10:50:59.032Z,28.10
2023-06-10T10:53:31.527Z,27.90
2023-06-10T10:56:07.614Z,27.70
2023-06-10T10:58:40.020Z,27.60
2023-06-10T11:01:15.745Z,27.60
2023-06-10T11:03:48.790Z,27.70
2023-06-10T11:06:21.617Z,27.80
2023-06-10T11:08:53.283Z,27.80
2023-06-10T11:11:28.006Z,27.80
2023-06-10T11:14:13.093Z,27.80
2023-06-10T11:16:46.510Z,27.60
2023-06-10T11:19:36.461Z,27.70
2023-06-10T11:22:10.896Z,27.60
2023-06-10T11:24:43.485Z,27.40
2023-06-10T11:27:25.425Z,27.30
2023-06-10T11:30:05.270Z,27.40
2023-06-10T11:32:37.758Z,27.60
2023-06-10T11:35:11.049Z,27.60
2023-06-10T11:37:42.863Z,27.70
2023-06-10T11:40:15.634Z,27.70
2023-06-10T11:42:47.803Z,27.70
2023-06-10T11:45:19.646Z,27.80
2023-06-10T11:48:01.394Z,28.00
2023-06-10T11:50:34.299Z,27.90
2023-06-10T11:53:06.011Z,27.60
2023-06-10T11:55:46.309Z,27.50
2023-06-10T11:58:16.823Z,27.60
2023-06-10T12:00:49.813Z,27.70
2023-06-10T12:03:21.835Z,27.80
2023-06-10T12:06:00.854Z,28.00
2023-06-10T12:08:35.296Z,28.10
2023-06-10T12:11:05.822Z,28.30
2023-06-10T12:13:37.490Z,28.30
2023-06-10T12:16:13.468Z,28.20
2023-06-10T12:18:46.778Z,28.30
2023-06-10T12:21:23.881Z,28.50
2023-06-10T12:24:06.883Z,28.50
2023-06-10T12:26:40.713Z,28.40
2023-06-10T12:29:25.293Z,28.50
2023-06-10T12:32:05.791Z,28.60
2023-06-10T12:34:39.421Z,28.60
2023-06-10T12:37:15.030Z,28.70
2023-06-10T12:39:49.639Z,28.30
2023-06-10T12:42:24.592Z,28.20
2023-06-10T12:44:57.985Z,28.40
2023-06-10T12:47:36.010Z,28.40
2023-06-10T12:50:10.426Z,28.30
2023-06-10T12:52:43.035Z,28.40
2023-06-10T12:55:14.802Z,28.40
2023-06-10T12:57:53.021Z,28.40
2023-06-10T13:00:26.747Z,28.30
2023-06-10T13:02:59.284Z,28.40
2023-06-10T13:05:31.152Z,28.60
2023-06-10T13:08:03.061Z,28.70
2023-06-10T13:10:34.708Z,28.70
2023-06-10T13:13:08.555Z,28.90
2023-06-10T13:15:43.711Z,28.90
2023-06-10T13:18:13.690Z,29.00
2023-06-10T13:20:45.478Z,28.90
2023-06-10T13:23:17.444Z,28.50
2023-06-10T13:25:49.138Z,28.70
2023-06-10T13:28:20.994Z,28.90
2023-06-10T13:30:52.723Z,28.90
2023-06-10T13:33:24.229Z,29.10
2023-06-10T13:35:56.000Z,29.30
2023-06-10T13:38:27.536Z,29.40
2023-06-10T13:41:00.747Z,29.30
2023-06-10T13:43:32.643Z,29.00
2023-06-10T13:46:04.543Z,29.00
2023-06-10T13:48:36.341Z,29.10
2023-06-10T13:51:08.135Z,29.30
2023-06-10T13:53:39.882Z,29.60
2023-06-10T13:56:11.435Z,29.90
2023-06-10T13:58:43.986Z,30.00
2023-06-10T14:01:16.038Z,30.00
2023-06-10T14:03:48.037Z,29.90
2023-06-10T14:06:19.975Z,29.80
2023-06-10T14:08:51.295Z,29.70
2023-06-10T14:11:22.932Z,29.90
2023-06-10T14:13:56.015Z,30.00
2023-06-10T14:16:27.866Z,30.00
2023-06-10T14:18:59.554Z,29.80
2023-06-10T14:21:31.319Z,29.50
2023-06-10T14:24:06.700Z,29.30
2023-06-10T14:26:39.792Z,29.20
2023-06-10T14:29:11.380Z,29.10
2023-06-10T14:31:43.689Z,29.10
2023-06-10T14:34:15.752Z,29.10
2023-06-10T14:36:47.388Z,28.80
2023-06-10T14:39:19.142Z,28.70
2023-06-10T14:41:51.000Z,28.60
2023-06-10T14:44:22.937Z,28.60
2023-06-10T14:46:54.614Z,28.40
2023-06-10T14:49:26.201Z,28.10
2023-06-10T14:51:58.033Z,28.00
2023-06-10T14:54:29.723Z,28.00
2023-06-10T14:57:01.444Z,28.00
2023-06-10T14:59:32.968Z,28.00
2023-06-10T15:02:04.730Z,28.10
2023-06-10T15:04:36.761Z,28.20
2023-06-10T15:07:08.751Z,28.40
2023-06-10T15:09:40.314Z,28.60
2023-06-10T15:12:12.885Z,28.90
2023-06-10T15:14:44.091Z,29.10
2023-06-10T15:17:15.708Z,29.20
2023-06-10T15:19:47.341Z,29.50
2023-06-10T15:22:18.991Z,29.60
2023-06-10T15:24:50.684Z,29.70
2023-06-10T15:27:22.435Z,29.70
2023-06-10T15:29:54.022Z,29.60
2023-06-10T15:32:25.747Z,29.60
2023-06-10T15:34:57.487Z,29.60
2023-06-10T15:37:29.147Z,29.60
2023-06-10T15:40:00.906Z,29.60
2023-06-10T15:42:32.555Z,29.50
2023-06-10T15:45:04.338Z,29.30
2023-06-10T15:47:35.974Z,29.10
2023-06-10T15:50:09.354Z,29.00
2023-06-10T15:52:41.029Z,28.70
2023-06-10T15:55:13.352Z,28.60
2023-06-10T15:57:45.330Z,28.70
2023-06-10T16:00:18.938Z,28.70
2023-06-10T16:02:50.653Z,28.70
2023-06-10T16:05:22.262Z,28.90
2023-06-10T16:07:53.808Z,28.90
2023-06-10T16:10:26.862Z,29.10
2023-06-10T16:12:58.721Z,29.50
2023-06-10T16:15:30.538Z,29.90
2023-06-10T16:18:02.127Z,30.50
2023-06-10T16:20:35.674Z,30.90
2023-06-10T16:23:07.898Z,30.80
2023-06-10T16:25:40.340Z,31.00
2023-06-10T16:28:12.111Z,31.00
2023-06-10T16:30:45.008Z,31.10
2023-06-10T16:33:17.368Z,31.30
2023-06-10T16:35:49.140Z,31.10
2023-06-10T16:38:20.983Z,30.70
2023-06-10T16:40:52.635Z,30.40
2023-06-10T16:43:25.895Z,30.30
2023-06-10T16:45:58.084Z,30.50
2023-06-10T16:48:29.774Z,30.30
2023-06-10T16:51:01.597Z,29.90
2023-06-10T16:53:33.253Z,29.40
2023-06-10T16:56:05.202Z,28.90
2023-06-10T16:58:36.906Z,28.50
2023-06-10T17:01:10.499Z,28.20
2023-06-10T17:03:42.258Z,27.90
2023-06-10T17:06:13.937Z,27.90
2023-06-10T17:08:45.883Z,27.90
2023-06-10T17:11:17.409Z,27.90
2023-06-10T17:13:49.037Z,27.80
2023-06-10T17:16:21.082Z,27.90
2023-06-10T17:18:52.754Z,28.10
2023-06-10T17:21:24.447Z,28.10
2023-06-10T17:23:56.155Z,28.30
2023-06-10T17:26:27.999Z,28.40
2023-06-10T17:28:59.736Z,28.50
2023-06-10T17:31:32.173Z,28.50
2023-06-10T17:34:11.668Z,28.50
2023-06-10T17:36:43.443Z,28.60
2023-06-10T17:39:15.764Z,28.50
2023-06-10T17:41:47.377Z,28.50
2023-06-10T17:44:20.634Z,28.40
2023-06-10T17:46:52.788Z,28.30
2023-06-10T17:49:31.794Z,28.20
2023-06-10T17:51:58.358Z,28.10
2023-06-10T17:54:30.147Z,27.90
2023-06-10T17:57:01.890Z,27.80
2023-06-10T17:59:33.626Z,27.80
2023-06-10T18:02:06.060Z,27.80
2023-06-10T18:04:37.624Z,27.80
2023-06-10T18:07:09.640Z,27.80
2023-06-10T18:09:42.215Z,27.60
2023-06-10T18:12:14.496Z,27.50
2023-06-10T18:14:46.210Z,27.30
2023-06-10T18:17:17.949Z,27.10
2023-06-10T18:19:49.549Z,26.90
2023-06-10T18:22:21.107Z,26.80
2023-06-10T18:24:53.314Z,26.80
2023-06-10T18:27:25.035Z,26.60
2023-06-10T18:29:57.571Z,26.60
2023-06-10T18:32:29.088Z,26.50
2023-06-10T18:35:16.825Z,26.40
2023-06-10T18:37:48.835Z,26.20
2023-06-10T18:40:20.775Z,26.10
2023-06-10T18:42:52.586Z,26.00
2023-06-10T18:45:24.597Z,25.90
2023-06-10T18:47:58.098Z,25.80
2023-06-10T18:50:29.655Z,25.80
2023-06-10T18:53:01.289Z,25.70
2023-06-10T18:55:34.614Z,25.50
2023-06-10T18:58:06.461Z,25.40
2023-06-10T19:00:38.070Z,25.30
2023-06-10T19:03:09.738Z,25.30
2023-06-10T19:05:41.401Z,25.30
2023-06-10T19:08:12.986Z,25.20
2023-06-10T19:10:44.781Z,25.20
2023-06-10T19:13:16.566Z,25.10
2023-06-10T19:15:48.263Z,25.00
2023-06-10T19:18:19.931Z,24.90
2023-06-10T19:20:51.709Z,25.00
2023-06-10T19:23:23.219Z,24.90
2023-06-10T19:25:54.834Z,24.80
2023-06-10T19:28:26.351Z,24.70
2023-06-10T19:30:57.907Z,24.60
2023-06-10T19:33:29.407Z,24.50
2023-06-10T19:36:01.147Z,24.40
2023-06-10T19:38:32.695Z,24.20
2023-06-10T19:41:05.093Z,24.20
2023-06-10T19:43:36.834Z,24.00
2023-06-10T19:46:08.474Z,24.00
2023-06-10T19:48:40.198Z,23.80
2023-06-10T19:51:11.830Z,23.80
2023-06-10T19:53:44.920Z,23.70
2023-06-10T19:56:18.315Z,23.60
2023-06-10T19:58:50.162Z,23.40
2023-06-10T20:01:21.640Z,23.40
2023-06-10T20:03:53.158Z,23.40
2023-06-10T20:06:24.761Z,23.40
2023-06-10T20:08:56.333Z,23.30
2023-06-10T20:11:27.862Z,23.20
2023-06-10T20:13:59.479Z,23.10
2023-06-10T20:16:31.203Z,23.10
2023-06-10T20:19:04.015Z,23.00
2023-06-10T20:21:36.459Z,23.00
2023-06-10T20:24:09.636Z,22.90
2023-06-10T20:26:41.256Z,22.80
2023-06-10T20:29:12.998Z,22.80
2023-06-10T20:31:46.566Z,22.70
2023-06-10T20:34:18.282Z,22.60
2023-06-10T20:36:50.270Z,22.60
2023-06-10T20:39:21.635Z,22.50
2023-06-10T20:41:53.335Z,22.60
2023-06-10T20:44:25.112Z,22.50
2023-06-10T20:46:56.615Z,22.50
2023-06-10T20:49:28.359Z,22.40
2023-06-10T20:51:59.975Z,22.30
2023-06-10T20:54:31.510Z,22.20
2023-06-10T20:57:03.026Z,22.10
2023-06-10T20:59:34.718Z,22.00
2023-06-10T21:02:06.842Z,22.00
2023-06-10T21:04:38.370Z,22.10
2023-06-10T21:07:10.580Z,22.10
2023-06-10T21:09:42.351Z,22.10
2023-06-10T21:12:14.758Z,22.00
2023-06-10T21:14:46.585Z,21.90
2023-06-10T21:17:18.326Z,21.90
2023-06-10T21:19:49.942Z,21.80
2023-06-10T21:22:21.537Z,21.70
2023-06-10T21:24:53.135Z,21.60
2023-06-10T21:27:25.743Z,21.60
2023-06-10T21:29:57.259Z,21.50
2023-06-10T21:32:31.057Z,21.50
2023-06-10T21:35:03.853Z,21.60
2023-06-10T21:37:35.363Z,21.60
2023-06-10T21:40:09.062Z,21.50
2023-06-10T21:42:40.768Z,21.50
2023-06-10T21:45:13.889Z,21.40
2023-06-10T21:47:45.685Z,21.40
2023-06-10T21:50:17.249Z,21.40
2023-06-10T21:52:48.844Z,21.40
2023-06-10T21:55:20.620Z,21.30
2023-06-10T21:57:52.327Z,21.20
2023-06-10T22:00:23.914Z,21.20
2023-06-10T22:02:55.556Z,21.20
2023-06-10T22:05:27.293Z,21.20
2023-06-10T22:07:59.109Z,21.30
2023-06-10T22:10:30.729Z,21.30
2023-06-10T22:13:02.903Z,21.40
2023-06-10T22:15:34.567Z,21.30
2023-06-10T22:18:08.484Z,21.30
2023-06-10T22:20:41.413Z,21.40
2023-06-10T22:23:14.968Z,21.30
2023-06-10T22:25:46.579Z,21.30
2023-06-10T22:28:18.187Z,21.20
2023-06-10T22:30:49.747Z,21.20
2023-06-10T22:33:21.555Z,21.10
2023-06-10T22:35:53.359Z,21.00
2023-06-10T22:38:24.903Z,21.00
2023-06-10T22:40:56.615Z,21.00
2023-06-10T22:43:28.094Z,20.90
2023-06-10T22:45:59.713Z,20.90
2023-06-10T22:48:31.593Z,20.90
2023-06-10T22:51:03.362Z,20.90
2023-06-10T22:53:34.870Z,20.80
2023-06-10T22:56:06.735Z,20.70
2023-06-10T22:58:38.230Z,20.60
2023-06-10T23:01:09.776Z,20.60
2023-06-10T23:03:41.406Z,20.50
2023-06-10T23:06:12.954Z,20.40
2023-06-10T23:08:44.445Z,20.30
2023-06-10T23:11:15.945Z,20.30
2023-06-10T23:13:47.419Z,20.30
2023-06-10T23:16:19.077Z,20.30
2023-06-10T23:18:51.062Z,20.40
2023-06-10T23:21:22.676Z,20.40
2023-06-10T23:23:54.613Z,20.30
2023-06-10T23:26:26.090Z,20.30
2023-06-10T23:28:57.662Z,20.20
2023-06-10T23:31:29.528Z,20.20
2023-06-10T23:34:01.295Z,20.20
2023-06-10T23:36:33.547Z,20.20
2023-06-10T23:39:05.310Z,20.20
2023-06-10T23:41:36.989Z,20.20
2023-06-10T23:44:08.658Z,20.20
2023-06-10T23:46:40.681Z,20.20
2023-06-10T23:49:12.616Z,20.20
2023-06-10T23:51:44.072Z,20.10
2023-06-10T23:54:16.013Z,20.10
2023-06-10T23:56:47.507Z,20.10
2023-06-10T23:59:18.998Z,20.00
